メインページ
METAR-TAF:

METAR-TAF

空港 :

キングストン, ジャマイカ

ノーマン・マンレー国際空港

緯度: 17-56N, 経度: 076-47W, 海抜: 3m

現時点の気象観測

当レポートは1時間6分前の21:00(UTC)に作成
南東の風 23kt
気温 30°C
湿度 52%
気圧 1015 hPa
視程10km以上
高度2200ftの雲はほとんどない

METAR: MKJP 192100Z 13023KT 9999 FEW022 30/19 Q1015

時間: 17:06 (22:06 UTC)

予報

当レポートは4時間51分前の17:15(UTC)に作成
予報は19日の 18時(UTC)から 20日の 18時(UTC)まで有効
南東の風 20kt
視程10km以上
高度2400ftの雲はほとんどない
20日の 01時(UTC)から 20日の 03時(UTC)まで徐々に
の風 7kt
20日の 14時(UTC)から 20日の 16時(UTC)まで徐々に
南東の風 20kt

TAF: MKJP 191715Z 1918/2018 14020KT 9999 FEW024 BECMG 2001/2003 35007KT BECMG 2014/2016 13020KT

4,000以上の空港の気象観測と天気予報(METAR報とTAF報)

利用可能な観測所は地図上に黄色い丸と赤い丸で示す。

丸の上にカーソルを重ねると観測所名を参照できる。

次にクリックすると気象観測と天気予報を参照できる。

マップの切り替え:黒色「×」印の緑ボタンをクリックして拡大、「-」印の緑ボタンをクリックして縮小、緑色の三角印をクリックして隣りの地図に切り替え


METAR-TAF: